createdAt,value
2023-05-25T00:00:24.619Z,3.50
2023-05-25T00:01:26.364Z,3.10
2023-05-25T00:02:27.832Z,2.93
2023-05-25T00:03:31.255Z,3.33
2023-05-25T00:04:36.922Z,3.23
2023-05-25T00:05:39.686Z,3.23
2023-05-25T00:06:41.311Z,3.83
2023-05-25T00:07:42.936Z,3.50
2023-05-25T00:08:45.784Z,3.33
2023-05-25T00:09:47.209Z,3.23
2023-05-25T00:10:48.662Z,3.00
2023-05-25T00:11:50.209Z,3.20
2023-05-25T00:12:51.671Z,3.13
2023-05-25T00:13:53.429Z,3.00
2023-05-25T00:14:55.181Z,2.73
2023-05-25T00:15:56.705Z,2.60
2023-05-25T00:16:58.422Z,2.90
2023-05-25T00:17:59.952Z,3.00
2023-05-25T00:19:03.676Z,3.00
2023-05-25T00:20:07.358Z,3.57
2023-05-25T00:21:09.371Z,2.70
2023-05-25T00:22:13.518Z,3.40
2023-05-25T00:23:15.041Z,2.97
2023-05-25T00:24:16.558Z,3.10
2023-05-25T00:25:18.440Z,3.00
2023-05-25T00:26:19.854Z,3.37
2023-05-25T00:27:21.199Z,3.30
2023-05-25T00:28:22.629Z,3.23
2023-05-25T00:29:25.960Z,3.50
2023-05-25T00:30:27.416Z,2.97
2023-05-25T00:31:29.669Z,3.47
2023-05-25T00:32:31.251Z,2.70
2023-05-25T00:33:32.699Z,3.37
2023-05-25T00:34:34.292Z,3.37
2023-05-25T00:35:35.690Z,3.23
2023-05-25T00:36:37.058Z,3.53
2023-05-25T00:37:38.439Z,3.03
2023-05-25T00:38:39.802Z,3.30
2023-05-25T00:39:41.227Z,3.93
2023-05-25T00:40:43.030Z,3.17
2023-05-25T00:41:45.156Z,3.47
2023-05-25T00:42:47.946Z,3.43
2023-05-25T00:43:49.362Z,3.30
2023-05-25T00:44:50.891Z,3.20
2023-05-25T00:45:52.364Z,3.47
2023-05-25T00:46:53.858Z,3.20
2023-05-25T00:47:55.629Z,3.00
2023-05-25T00:48:57.100Z,3.00
2023-05-25T00:49:58.489Z,3.30
2023-05-25T00:51:01.454Z,2.87
2023-05-25T00:52:02.957Z,3.17
2023-05-25T00:53:06.246Z,2.77
2023-05-25T00:54:07.770Z,3.00
2023-05-25T00:55:11.649Z,3.00
2023-05-25T00:56:23.115Z,3.23
2023-05-25T00:57:25.468Z,3.40
2023-05-25T00:58:28.060Z,3.00
2023-05-25T00:59:41.863Z,3.20
2023-05-25T01:00:45.260Z,3.10
2023-05-25T01:01:47.482Z,2.87
2023-05-25T01:02:52.896Z,3.03
2023-05-25T01:03:56.077Z,2.77
2023-05-25T01:05:00.111Z,3.63
2023-05-25T01:06:03.708Z,3.53
2023-05-25T01:07:06.100Z,3.10
2023-05-25T01:08:08.676Z,3.10
2023-05-25T01:09:11.181Z,2.97
2023-05-25T01:10:14.254Z,2.80
2023-05-25T01:11:16.854Z,3.33
2023-05-25T01:12:19.470Z,3.03
2023-05-25T01:13:21.403Z,2.97
2023-05-25T01:14:22.978Z,3.10
2023-05-25T01:15:24.414Z,2.80
2023-05-25T01:16:28.635Z,2.80
2023-05-25T01:17:30.083Z,3.03
2023-05-25T01:18:31.539Z,2.90
2023-05-25T01:19:33.835Z,3.03
2023-05-25T01:20:36.635Z,3.23
2023-05-25T01:21:46.028Z,2.90
2023-05-25T01:22:54.153Z,3.13
2023-05-25T01:24:04.617Z,3.20
2023-05-25T01:25:13.646Z,3.10
2023-05-25T01:26:16.705Z,2.70
2023-05-25T01:27:28.007Z,3.50
2023-05-25T01:28:30.633Z,2.50
2023-05-25T01:29:33.178Z,3.40
2023-05-25T01:30:34.997Z,3.07
2023-05-25T01:31:36.820Z,2.80
2023-05-25T01:32:42.075Z,3.17
2023-05-25T01:33:44.548Z,3.07
2023-05-25T01:34:46.789Z,4.03
2023-05-25T01:35:48.757Z,3.37
2023-05-25T01:36:50.667Z,3.27
2023-05-25T01:37:52.214Z,3.50
2023-05-25T01:38:53.947Z,3.27
2023-05-25T01:39:55.366Z,3.57
2023-05-25T01:40:56.755Z,3.30
2023-05-25T01:41:58.141Z,3.40
2023-05-25T01:42:59.540Z,3.30
2023-05-25T01:44:00.947Z,3.50
2023-05-25T01:45:02.603Z,3.70
2023-05-25T01:46:17.150Z,4.07
2023-05-25T01:47:30.721Z,3.70
2023-05-25T01:48:54.126Z,3.77
2023-05-25T01:50:00.008Z,4.37
2023-05-25T01:51:04.873Z,3.53
2023-05-25T01:52:12.356Z,4.10
2023-05-25T01:53:19.543Z,4.73
2023-05-25T01:54:22.981Z,4.60
2023-05-25T01:55:26.874Z,4.73
2023-05-25T01:56:29.392Z,4.20
2023-05-25T01:57:33.901Z,4.10
2023-05-25T01:58:36.807Z,3.87
2023-05-25T01:59:38.617Z,5.13
2023-05-25T02:00:40.591Z,4.10
2023-05-25T02:01:42.514Z,4.33
2023-05-25T02:02:45.619Z,4.73
2023-05-25T02:03:48.886Z,4.00
2023-05-25T02:04:50.797Z,68.87
2023-05-25T02:05:52.323Z,25.57
2023-05-25T02:06:54.687Z,15.83
2023-05-25T02:07:56.208Z,11.73
2023-05-25T02:08:57.603Z,8.47
2023-05-25T02:09:59.650Z,6.80
2023-05-25T02:11:02.137Z,30.43
2023-05-25T02:12:03.970Z,60.10
2023-05-25T02:13:05.418Z,59.07
2023-05-25T02:14:06.936Z,65.10
2023-05-25T02:15:08.564Z,61.57
2023-05-25T02:16:10.083Z,62.53
2023-05-25T02:17:12.915Z,54.13
2023-05-25T02:18:14.366Z,61.47
2023-05-25T02:19:16.004Z,50.37
2023-05-25T02:20:17.389Z,51.97
2023-05-25T02:21:18.798Z,54.67
2023-05-25T02:22:21.186Z,48.23
2023-05-25T02:23:22.582Z,55.97
2023-05-25T02:24:27.393Z,23.00
2023-05-25T02:25:28.820Z,33.67
2023-05-25T02:26:30.278Z,28.03
2023-05-25T02:27:33.227Z,9.83
2023-05-25T02:28:34.828Z,5.33
2023-05-25T02:29:36.243Z,4.37
2023-05-25T02:30:37.682Z,4.53
2023-05-25T02:31:39.176Z,4.70
2023-05-25T02:32:40.943Z,4.50
2023-05-25T02:33:42.339Z,4.30
2023-05-25T02:34:43.783Z,5.30
2023-05-25T02:35:46.237Z,7.77
2023-05-25T02:36:47.812Z,7.33
2023-05-25T02:37:51.138Z,5.20
2023-05-25T02:38:52.751Z,6.03
2023-05-25T02:39:54.249Z,4.43
2023-05-25T02:40:56.063Z,4.70
2023-05-25T02:41:58.416Z,4.30
2023-05-25T02:43:01.167Z,4.80
2023-05-25T02:44:02.744Z,5.07
2023-05-25T02:45:10.428Z,4.87
2023-05-25T02:46:12.462Z,4.67
2023-05-25T02:47:17.973Z,4.40
2023-05-25T02:48:19.636Z,5.03
2023-05-25T02:49:20.972Z,4.80
2023-05-25T02:50:22.806Z,4.83
2023-05-25T02:51:28.442Z,4.50
2023-05-25T02:52:32.678Z,4.77
2023-05-25T02:53:34.223Z,4.80
2023-05-25T02:54:36.978Z,4.80
2023-05-25T02:55:43.439Z,4.67
2023-05-25T02:56:49.491Z,4.47
2023-05-25T02:57:52.735Z,4.70
2023-05-25T02:59:09.619Z,4.90
2023-05-25T03:00:14.610Z,5.60
2023-05-25T03:01:19.216Z,5.20
2023-05-25T03:02:28.984Z,5.33
2023-05-25T03:03:30.987Z,5.23
2023-05-25T03:04:34.318Z,5.60
2023-05-25T03:05:36.375Z,5.87
2023-05-25T03:06:37.970Z,4.40
2023-05-25T03:07:47.800Z,4.50
2023-05-25T03:08:49.292Z,4.93
2023-05-25T03:09:50.898Z,4.57
2023-05-25T03:10:52.326Z,4.50
2023-05-25T03:11:53.899Z,4.80
2023-05-25T03:12:55.909Z,4.80
2023-05-25T03:13:57.890Z,4.90
2023-05-25T03:14:59.327Z,5.03
2023-05-25T03:16:00.847Z,4.73
2023-05-25T03:17:03.470Z,4.83
2023-05-25T03:18:05.581Z,5.03
2023-05-25T03:19:12.137Z,4.87
2023-05-25T03:20:15.505Z,4.77
2023-05-25T03:21:20.171Z,4.13
2023-05-25T03:22:21.607Z,5.03
2023-05-25T03:23:23.171Z,4.40
2023-05-25T03:24:26.976Z,4.20
2023-05-25T03:25:30.718Z,4.20
2023-05-25T03:26:33.894Z,4.40
2023-05-25T03:27:36.949Z,4.33
2023-05-25T03:28:38.363Z,4.80
2023-05-25T03:29:40.122Z,4.97
2023-05-25T03:30:41.880Z,4.80
2023-05-25T03:31:44.167Z,4.30
2023-05-25T03:32:45.770Z,4.67
2023-05-25T03:33:47.305Z,4.07
2023-05-25T03:34:49.033Z,4.33
2023-05-25T03:35:51.947Z,4.30
2023-05-25T03:36:55.140Z,4.40
2023-05-25T03:37:56.571Z,4.13
2023-05-25T03:38:58.144Z,4.80
2023-05-25T03:39:59.619Z,4.97
2023-05-25T03:41:01.185Z,15.33
2023-05-25T03:42:03.492Z,13.20
2023-05-25T03:43:05.015Z,11.83
2023-05-25T03:44:06.683Z,8.30
2023-05-25T03:45:09.322Z,15.83
2023-05-25T03:46:11.869Z,16.17
2023-05-25T03:47:13.528Z,8.90
2023-05-25T03:48:15.052Z,6.60
2023-05-25T03:49:16.534Z,5.93
2023-05-25T03:50:18.473Z,8.33
2023-05-25T03:51:19.920Z,7.37
2023-05-25T03:52:21.533Z,5.40
2023-05-25T03:53:22.976Z,5.50
2023-05-25T03:54:24.402Z,5.57
2023-05-25T03:55:25.779Z,4.93
2023-05-25T03:56:27.249Z,4.77
2023-05-25T03:57:28.748Z,4.77
2023-05-25T03:58:30.245Z,5.30
2023-05-25T03:59:31.655Z,4.20
2023-05-25T04:00:33.045Z,4.97
2023-05-25T04:01:37.994Z,4.50
2023-05-25T04:02:39.519Z,5.00
2023-05-25T04:03:41.183Z,4.80
2023-05-25T04:04:42.760Z,4.67
2023-05-25T04:05:45.928Z,4.23
2023-05-25T04:06:49.046Z,4.70
2023-05-25T04:07:50.496Z,5.03
2023-05-25T04:08:52.158Z,4.30
2023-05-25T04:09:53.530Z,4.77
2023-05-25T04:10:54.947Z,4.63
2023-05-25T04:11:56.340Z,4.67
2023-05-25T04:12:57.946Z,5.10
2023-05-25T04:14:00.035Z,4.77
2023-05-25T04:15:05.465Z,4.90
2023-05-25T04:16:10.134Z,5.03
2023-05-25T04:17:11.671Z,4.83
2023-05-25T04:18:13.617Z,4.40
2023-05-25T04:19:15.147Z,5.00
2023-05-25T04:20:16.802Z,4.63
2023-05-25T04:21:18.305Z,4.90
2023-05-25T04:22:19.936Z,4.93
2023-05-25T04:23:22.487Z,4.50
2023-05-25T04:24:26.340Z,4.70
2023-05-25T04:25:29.575Z,4.90
2023-05-25T04:26:31.999Z,5.40
2023-05-25T04:27:34.959Z,4.73
2023-05-25T04:28:40.914Z,4.87
2023-05-25T04:29:50.195Z,4.50
2023-05-25T04:31:10.138Z,4.43
2023-05-25T04:32:32.048Z,5.33
2023-05-25T04:34:09.640Z,4.97
2023-05-25T04:35:16.128Z,5.10
2023-05-25T04:36:20.283Z,5.37
2023-05-25T04:37:22.466Z,4.63
2023-05-25T04:38:25.103Z,4.87
2023-05-25T04:39:26.724Z,4.73
2023-05-25T04:40:33.262Z,5.03
2023-05-25T04:41:35.944Z,4.57
2023-05-25T04:42:41.599Z,4.80
2023-05-25T04:43:57.261Z,4.27
2023-05-25T04:45:07.768Z,4.40
2023-05-25T04:46:09.185Z,4.30
2023-05-25T04:47:12.164Z,4.30
2023-05-25T04:48:13.554Z,4.70
2023-05-25T04:49:14.931Z,4.60
2023-05-25T04:50:16.489Z,4.97
2023-05-25T04:51:17.924Z,5.03
2023-05-25T04:52:19.445Z,4.53
2023-05-25T04:53:24.447Z,5.90
2023-05-25T04:54:26.003Z,4.73
2023-05-25T04:55:27.520Z,4.70
2023-05-25T04:56:28.993Z,4.80
2023-05-25T04:57:32.482Z,4.60
2023-05-25T04:58:33.936Z,4.83
2023-05-25T04:59:35.380Z,4.87
2023-05-25T05:00:40.106Z,4.60
2023-05-25T05:01:42.167Z,5.20
2023-05-25T05:02:46.627Z,4.37
2023-05-25T05:03:48.329Z,4.90
2023-05-25T05:04:53.641Z,4.90
2023-05-25T05:05:55.711Z,4.90
2023-05-25T05:07:00.070Z,4.43
2023-05-25T05:08:03.908Z,4.50
2023-05-25T05:09:05.282Z,4.40
2023-05-25T05:10:07.566Z,3.97
2023-05-25T05:11:11.257Z,4.77
2023-05-25T05:12:12.631Z,4.33
2023-05-25T05:13:20.288Z,4.30
2023-05-25T05:14:22.092Z,4.47
2023-05-25T05:15:23.506Z,4.70
2023-05-25T05:16:25.188Z,4.67
2023-05-25T05:17:28.048Z,4.87
2023-05-25T05:18:29.571Z,4.47
2023-05-25T05:19:33.069Z,4.50
2023-05-25T05:20:34.566Z,4.20
2023-05-25T05:21:36.288Z,4.67
2023-05-25T05:22:40.328Z,4.50
2023-05-25T05:23:42.976Z,4.67
2023-05-25T05:24:44.579Z,4.53
2023-05-25T05:25:48.976Z,4.07
2023-05-25T05:26:58.400Z,4.20
2023-05-25T05:28:04.730Z,4.10
2023-05-25T05:29:12.944Z,4.43
2023-05-25T05:30:14.460Z,4.47
2023-05-25T05:31:17.433Z,4.70
2023-05-25T05:32:18.866Z,3.93
2023-05-25T05:33:20.577Z,4.17
2023-05-25T05:34:22.155Z,4.97
2023-05-25T05:35:23.690Z,4.00
2023-05-25T05:36:30.202Z,4.07
2023-05-25T05:37:32.113Z,4.07
2023-05-25T05:38:33.547Z,4.23
2023-05-25T05:39:35.124Z,3.80
2023-05-25T05:40:36.647Z,4.10
2023-05-25T05:41:38.116Z,3.60
2023-05-25T05:42:39.980Z,3.73
2023-05-25T05:43:43.212Z,4.30
2023-05-25T05:44:44.593Z,3.90
2023-05-25T05:45:46.413Z,3.90
2023-05-25T05:46:48.136Z,4.90
2023-05-25T05:47:49.734Z,4.37
2023-05-25T05:48:51.699Z,3.70
2023-05-25T05:49:53.202Z,3.90
2023-05-25T05:50:54.638Z,3.77
2023-05-25T05:51:56.595Z,4.00
2023-05-25T05:52:57.982Z,3.70
2023-05-25T05:53:59.924Z,4.13
2023-05-25T05:55:01.681Z,3.80
2023-05-25T05:56:03.460Z,3.77
2023-05-25T05:57:05.122Z,4.07
2023-05-25T05:58:07.147Z,3.80
2023-05-25T05:59:08.796Z,4.13
2023-05-25T06:00:11.159Z,4.33
2023-05-25T06:01:18.201Z,4.57
2023-05-25T06:02:19.905Z,4.10
2023-05-25T06:03:22.347Z,4.10
2023-05-25T06:04:26.577Z,3.30
2023-05-25T06:05:28.194Z,4.03
2023-05-25T06:06:32.964Z,3.97
2023-05-25T06:07:35.481Z,3.73
2023-05-25T06:08:37.465Z,3.63
2023-05-25T06:09:39.164Z,3.80
2023-05-25T06:10:40.698Z,4.07
2023-05-25T06:11:42.214Z,4.00
2023-05-25T06:12:44.604Z,3.70
2023-05-25T06:13:46.746Z,3.80
2023-05-25T06:14:50.668Z,3.70
2023-05-25T06:15:52.198Z,3.58
2023-05-25T06:16:58.156Z,3.67
2023-05-25T06:17:59.895Z,3.80
2023-05-25T06:19:01.939Z,3.83
2023-05-25T06:20:03.599Z,3.83
2023-05-25T06:21:06.367Z,3.83
2023-05-25T06:22:07.835Z,3.55
2023-05-25T06:23:11.447Z,3.60
2023-05-25T06:24:14.927Z,3.65
2023-05-25T06:25:16.531Z,3.60
2023-05-25T06:26:18.491Z,3.67
2023-05-25T06:27:20.200Z,3.15
2023-05-25T06:28:21.810Z,3.63
2023-05-25T06:29:24.206Z,3.30
2023-05-25T06:30:25.789Z,3.67
2023-05-25T06:31:27.448Z,3.53
2023-05-25T06:32:29.411Z,3.35
2023-05-25T06:33:31.742Z,3.70
2023-05-25T06:34:33.075Z,3.88
2023-05-25T06:35:34.839Z,4.35
2023-05-25T06:36:37.230Z,3.53
2023-05-25T06:37:38.784Z,3.60
2023-05-25T06:38:41.727Z,3.60
2023-05-25T06:39:43.474Z,3.60
2023-05-25T06:40:45.714Z,3.53
2023-05-25T06:41:47.239Z,3.47
2023-05-25T06:43:00.348Z,3.40
2023-05-25T06:44:21.975Z,3.85
2023-05-25T06:45:23.417Z,3.67
2023-05-25T06:46:24.863Z,4.07
2023-05-25T06:47:26.418Z,3.42
2023-05-25T06:48:27.864Z,3.58
2023-05-25T06:49:29.306Z,3.85
2023-05-25T06:50:32.158Z,3.97
2023-05-25T06:51:33.779Z,3.95
2023-05-25T06:52:35.828Z,3.80
2023-05-25T06:53:37.684Z,3.95
2023-05-25T06:54:39.343Z,3.60
2023-05-25T06:55:41.535Z,3.53
2023-05-25T06:56:43.341Z,3.83
2023-05-25T06:57:46.123Z,3.50
2023-05-25T06:58:47.735Z,3.92
2023-05-25T06:59:49.541Z,3.90
2023-05-25T07:00:50.991Z,3.65
2023-05-25T07:01:52.834Z,3.90
2023-05-25T07:02:54.661Z,3.72
2023-05-25T07:03:56.648Z,3.70
2023-05-25T07:04:58.277Z,3.40
2023-05-25T07:05:59.900Z,3.83
2023-05-25T07:07:01.637Z,3.72
2023-05-25T07:08:03.164Z,3.42
2023-05-25T07:09:04.780Z,3.47
2023-05-25T07:10:14.154Z,4.28
2023-05-25T07:11:20.682Z,4.00
2023-05-25T07:12:26.458Z,3.53
2023-05-25T07:13:28.235Z,3.63
2023-05-25T07:14:29.828Z,3.63
2023-05-25T07:15:31.324Z,3.88
2023-05-25T07:16:33.269Z,3.70
2023-05-25T07:17:39.304Z,3.92
2023-05-25T07:18:43.527Z,3.72
2023-05-25T07:19:48.879Z,3.75
2023-05-25T07:20:51.542Z,3.63
2023-05-25T07:21:53.019Z,3.53
2023-05-25T07:22:54.516Z,3.42
2023-05-25T07:23:56.136Z,3.53
2023-05-25T07:24:58.479Z,3.90
2023-05-25T07:26:00.069Z,4.25
2023-05-25T07:27:02.439Z,4.05
2023-05-25T07:28:04.010Z,3.47
2023-05-25T07:29:05.506Z,3.80
2023-05-25T07:30:07.321Z,3.92
2023-05-25T07:31:09.698Z,3.72
2023-05-25T07:32:11.129Z,3.78
2023-05-25T07:33:12.517Z,4.00
2023-05-25T07:34:14.055Z,3.90
2023-05-25T07:35:15.534Z,3.45
2023-05-25T07:36:17.160Z,3.88
2023-05-25T07:37:18.572Z,4.32
2023-05-25T07:38:20.361Z,3.40
2023-05-25T07:39:21.754Z,3.92
2023-05-25T07:40:23.168Z,4.13
2023-05-25T07:41:24.697Z,4.13
2023-05-25T07:42:26.172Z,3.75
2023-05-25T07:43:27.559Z,3.72
2023-05-25T07:44:30.052Z,3.25
2023-05-25T07:45:44.629Z,3.55
2023-05-25T07:46:46.644Z,3.75
2023-05-25T07:47:48.091Z,3.70
2023-05-25T07:48:49.498Z,3.60
2023-05-25T07:49:50.878Z,3.60
2023-05-25T07:50:52.522Z,3.70
2023-05-25T07:51:54.005Z,4.22
2023-05-25T07:52:55.357Z,3.88
2023-05-25T07:53:57.115Z,3.50
2023-05-25T07:54:58.664Z,3.92
2023-05-25T07:56:00.066Z,3.60
2023-05-25T07:57:01.532Z,3.40
2023-05-25T07:58:03.844Z,3.50
2023-05-25T07:59:05.544Z,3.63
2023-05-25T08:00:10.443Z,3.92
2023-05-25T08:01:14.654Z,3.83
2023-05-25T08:02:16.404Z,3.55
2023-05-25T08:03:18.004Z,4.15
2023-05-25T08:04:21.152Z,4.38
2023-05-25T08:05:22.646Z,3.85
2023-05-25T08:06:24.039Z,4.40
2023-05-25T08:07:25.542Z,3.65
2023-05-25T08:08:26.949Z,3.40
2023-05-25T08:09:28.359Z,3.80
2023-05-25T08:10:32.262Z,3.55
2023-05-25T08:11:33.719Z,3.47
2023-05-25T08:12:47.744Z,3.28
2023-05-25T08:13:51.163Z,3.53
2023-05-25T08:14:54.071Z,3.65
2023-05-25T08:15:55.478Z,3.33
2023-05-25T08:16:57.004Z,3.72
2023-05-25T08:17:58.547Z,4.25
2023-05-25T08:19:01.478Z,3.40
2023-05-25T08:20:06.086Z,3.60
2023-05-25T08:21:07.729Z,4.25
2023-05-25T08:22:09.275Z,3.20
2023-05-25T08:23:10.780Z,3.75
2023-05-25T08:24:12.262Z,3.55
2023-05-25T08:25:13.639Z,4.07
2023-05-25T08:26:34.014Z,3.88
2023-05-25T08:27:36.781Z,4.25
2023-05-25T08:28:38.289Z,3.45
2023-05-25T08:29:39.640Z,3.90
2023-05-25T08:30:41.355Z,3.88
2023-05-25T08:31:44.915Z,3.78
2023-05-25T08:32:46.504Z,3.83
2023-05-25T08:33:47.975Z,3.95
2023-05-25T08:34:49.400Z,3.45
2023-05-25T08:35:52.711Z,3.92
2023-05-25T08:36:54.172Z,3.70
2023-05-25T08:37:55.688Z,4.20
2023-05-25T08:38:57.065Z,4.25
2023-05-25T08:40:00.911Z,3.65
2023-05-25T08:41:04.290Z,3.95
2023-05-25T08:42:07.093Z,3.60
2023-05-25T08:43:08.616Z,3.50
2023-05-25T08:44:10.391Z,3.50
2023-05-25T08:45:22.577Z,4.35
2023-05-25T08:46:33.525Z,4.00
2023-05-25T08:47:36.544Z,3.80
2023-05-25T08:48:42.220Z,3.58
2023-05-25T08:49:44.671Z,4.00
2023-05-25T08:50:46.969Z,4.47
2023-05-25T08:51:50.750Z,3.83
2023-05-25T08:52:52.553Z,4.13
2023-05-25T08:53:55.426Z,3.70
2023-05-25T08:54:59.537Z,3.95
2023-05-25T08:56:01.106Z,3.92
2023-05-25T08:57:05.995Z,3.97
2023-05-25T08:58:15.272Z,3.78
2023-05-25T08:59:46.089Z,3.83
2023-05-25T09:00:53.489Z,3.92
2023-05-25T09:02:06.556Z,3.70
2023-05-25T09:03:15.894Z,3.50
2023-05-25T09:04:19.775Z,3.65
2023-05-25T09:05:21.530Z,3.78
2023-05-25T09:06:23.981Z,4.07
2023-05-25T09:07:26.309Z,4.18
2023-05-25T09:08:28.092Z,3.90
2023-05-25T09:09:29.621Z,3.60
2023-05-25T09:10:33.092Z,3.90
2023-05-25T09:11:39.290Z,3.50
2023-05-25T09:12:42.707Z,3.88
2023-05-25T09:13:44.390Z,3.80
2023-05-25T09:14:47.820Z,3.60
2023-05-25T09:15:49.675Z,3.90
2023-05-25T09:16:51.103Z,4.68
2023-05-25T09:17:52.563Z,3.85
2023-05-25T09:18:53.933Z,3.75
2023-05-25T09:19:55.326Z,3.92
2023-05-25T09:20:57.394Z,3.95
2023-05-25T09:22:13.565Z,4.00
2023-05-25T09:23:17.318Z,4.07
2023-05-25T09:24:18.778Z,4.10
2023-05-25T09:25:20.403Z,4.00
2023-05-25T09:26:21.985Z,4.18
2023-05-25T09:27:23.700Z,3.45
2023-05-25T09:28:27.377Z,3.60
2023-05-25T09:29:29.616Z,4.30
2023-05-25T09:30:32.989Z,3.50
2023-05-25T09:31:34.555Z,3.65
2023-05-25T09:32:36.300Z,4.15
2023-05-25T09:33:38.835Z,3.40
2023-05-25T09:34:40.289Z,3.30
2023-05-25T09:35:43.257Z,4.15
2023-05-25T09:36:44.686Z,4.35
2023-05-25T09:37:48.985Z,3.95
2023-05-25T09:38:52.586Z,3.88
2023-05-25T09:39:54.301Z,3.83
2023-05-25T09:40:55.801Z,3.95
2023-05-25T09:41:57.561Z,3.60
2023-05-25T09:42:59.310Z,4.13
2023-05-25T09:44:10.953Z,3.83
2023-05-25T09:45:13.360Z,4.07
2023-05-25T09:46:14.864Z,3.67
2023-05-25T09:47:17.996Z,4.20
2023-05-25T09:48:19.536Z,4.15
2023-05-25T09:49:21.248Z,4.03
2023-05-25T09:50:32.530Z,3.92
2023-05-25T09:51:34.009Z,3.80
2023-05-25T09:52:36.117Z,4.10
2023-05-25T09:53:37.771Z,3.53
2023-05-25T09:54:39.304Z,3.90
2023-05-25T09:55:52.391Z,4.07
2023-05-25T09:56:55.038Z,4.18
2023-05-25T09:57:56.995Z,4.22
2023-05-25T09:58:58.720Z,3.83
2023-05-25T10:00:00.323Z,3.65
2023-05-25T10:01:01.852Z,4.07
2023-05-25T10:02:03.340Z,4.20
2023-05-25T10:03:07.844Z,4.20
2023-05-25T10:04:09.251Z,3.90
2023-05-25T10:05:10.743Z,4.32
2023-05-25T10:06:13.046Z,4.15
2023-05-25T10:07:16.082Z,4.15
2023-05-25T10:08:19.775Z,4.00
2023-05-25T10:09:21.582Z,4.85
2023-05-25T10:10:23.850Z,3.75
2023-05-25T10:11:26.866Z,4.03
2023-05-25T10:12:28.814Z,4.85
2023-05-25T10:13:30.573Z,3.63
2023-05-25T10:14:34.471Z,3.90
2023-05-25T10:15:37.686Z,3.85
2023-05-25T10:16:41.127Z,4.55
2023-05-25T10:17:48.414Z,3.90
2023-05-25T10:19:08.719Z,3.88
2023-05-25T10:20:10.708Z,3.90
2023-05-25T10:21:12.736Z,4.60
2023-05-25T10:22:23.944Z,3.60
2023-05-25T10:23:27.108Z,4.55
2023-05-25T10:24:34.639Z,4.43
2023-05-25T10:25:36.039Z,4.32
2023-05-25T10:26:40.430Z,3.65
2023-05-25T10:27:44.165Z,4.22
2023-05-25T10:28:47.823Z,3.83
2023-05-25T10:29:50.074Z,4.05
2023-05-25T10:30:52.288Z,3.80
2023-05-25T10:31:54.159Z,4.45
2023-05-25T10:32:56.924Z,3.80
2023-05-25T10:33:59.238Z,4.55
2023-05-25T10:35:00.830Z,4.22
2023-05-25T10:37:11.247Z,4.82
2023-05-25T10:38:13.361Z,3.95
2023-05-25T10:39:15.197Z,4.15
2023-05-25T10:40:16.598Z,4.00
2023-05-25T10:41:19.453Z,4.45
2023-05-25T10:42:20.974Z,4.05
2023-05-25T10:43:22.848Z,3.78
2023-05-25T10:44:24.624Z,4.15
2023-05-25T10:45:26.396Z,3.95
2023-05-25T10:46:28.270Z,4.30
2023-05-25T10:47:30.343Z,3.97
2023-05-25T10:48:51.884Z,4.22
2023-05-25T10:50:01.542Z,4.28
2023-05-25T10:51:03.104Z,3.90
2023-05-25T10:52:04.701Z,4.10
2023-05-25T10:53:07.170Z,4.10
2023-05-25T10:54:13.135Z,3.70
2023-05-25T10:55:15.052Z,5.65
2023-05-25T10:56:16.454Z,4.88
2023-05-25T10:57:18.817Z,3.85
2023-05-25T10:58:21.415Z,4.15
2023-05-25T10:59:26.183Z,3.83
2023-05-25T11:00:30.844Z,4.15
2023-05-25T11:01:35.355Z,3.92
2023-05-25T11:02:55.955Z,4.10
2023-05-25T11:04:13.610Z,3.97
2023-05-25T11:05:30.464Z,3.80
2023-05-25T11:06:40.239Z,3.97
2023-05-25T11:07:54.556Z,3.95
2023-05-25T11:08:57.142Z,3.78
2023-05-25T11:09:59.278Z,4.35
2023-05-25T11:11:00.923Z,4.00
2023-05-25T11:12:03.951Z,3.80
2023-05-25T11:13:24.216Z,3.83
2023-05-25T11:14:29.900Z,4.20
2023-05-25T11:15:31.620Z,4.05
2023-05-25T11:16:36.182Z,4.18
2023-05-25T11:17:57.530Z,4.00
2023-05-25T11:18:59.369Z,4.05
2023-05-25T11:20:06.198Z,4.28
2023-05-25T11:21:40.636Z,4.00
2023-05-25T11:22:42.489Z,3.63
2023-05-25T11:23:54.281Z,4.03
2023-05-25T11:24:57.362Z,3.85
2023-05-25T11:26:04.834Z,3.95
2023-05-25T11:27:07.131Z,4.07
2023-05-25T11:28:10.675Z,4.07
2023-05-25T11:29:13.214Z,4.05
2023-05-25T11:30:17.494Z,4.05
2023-05-25T11:31:35.224Z,4.32
2023-05-25T11:32:50.977Z,3.80
2023-05-25T11:33:57.183Z,4.10
2023-05-25T11:34:59.422Z,3.70
2023-05-25T11:36:01.513Z,3.88
2023-05-25T11:37:03.750Z,4.43
2023-05-25T11:38:08.816Z,3.63
2023-05-25T11:39:20.659Z,4.30
2023-05-25T11:40:24.053Z,4.00
2023-05-25T11:41:26.126Z,3.85
2023-05-25T11:42:27.727Z,3.95
2023-05-25T11:43:29.644Z,3.97
2023-05-25T11:44:33.472Z,3.70
2023-05-25T11:45:37.154Z,3.80
2023-05-25T11:46:38.756Z,4.10
2023-05-25T11:47:40.426Z,4.05
2023-05-25T11:48:45.394Z,3.97
2023-05-25T11:49:47.294Z,3.63
2023-05-25T11:51:03.351Z,3.90
2023-05-25T11:52:07.045Z,4.13
2023-05-25T11:53:08.717Z,3.65
2023-05-25T11:54:10.084Z,3.60
2023-05-25T11:55:13.311Z,3.90
2023-05-25T11:56:27.063Z,3.80
2023-05-25T11:57:35.577Z,3.90
2023-05-25T11:58:37.027Z,3.90
2023-05-25T11:59:39.525Z,4.28
2023-05-25T12:00:40.976Z,4.10
2023-05-25T12:01:42.606Z,4.15
2023-05-25T12:02:44.145Z,3.83
2023-05-25T12:03:49.522Z,3.60
2023-05-25T12:04:55.402Z,3.65
2023-05-25T12:05:56.938Z,3.88
2023-05-25T12:07:02.471Z,3.90
2023-05-25T12:08:04.051Z,4.18
2023-05-25T12:09:10.742Z,3.92
2023-05-25T12:10:13.197Z,4.07
2023-05-25T12:11:14.782Z,3.95
2023-05-25T12:12:16.314Z,3.60
2023-05-25T12:13:20.699Z,3.90
2023-05-25T12:14:22.308Z,4.15
2023-05-25T12:15:24.535Z,3.30
2023-05-25T12:16:26.594Z,3.70
2023-05-25T12:17:28.503Z,3.60
2023-05-25T12:18:30.393Z,3.92
2023-05-25T12:19:32.025Z,3.78
2023-05-25T12:20:33.623Z,3.58
2023-05-25T12:21:37.064Z,4.20
2023-05-25T12:22:39.454Z,3.72
2023-05-25T12:23:41.066Z,3.65
2023-05-25T12:24:42.615Z,3.85
2023-05-25T12:25:50.811Z,3.95
2023-05-25T12:26:59.167Z,3.50
2023-05-25T12:28:11.384Z,4.13
2023-05-25T12:29:12.863Z,3.70
2023-05-25T12:30:14.352Z,3.45
2023-05-25T12:31:22.991Z,3.47
2023-05-25T12:32:24.948Z,4.30
2023-05-25T12:33:26.402Z,3.72
2023-05-25T12:34:28.602Z,3.50
2023-05-25T12:35:44.082Z,3.60
2023-05-25T12:36:52.473Z,3.85
2023-05-25T12:38:09.371Z,3.85
2023-05-25T12:39:12.218Z,3.63
2023-05-25T12:40:17.880Z,4.10
2023-05-25T12:41:19.682Z,4.30
2023-05-25T12:42:21.215Z,3.50
2023-05-25T12:43:22.643Z,3.50
2023-05-25T12:44:26.051Z,3.70
2023-05-25T12:45:27.978Z,3.83
2023-05-25T12:46:29.403Z,3.40
2023-05-25T12:47:32.275Z,3.70
2023-05-25T12:48:33.647Z,3.53
2023-05-25T12:49:35.247Z,3.70
2023-05-25T12:50:37.269Z,3.63
2023-05-25T12:51:39.274Z,4.00
2023-05-25T12:52:42.517Z,3.65
2023-05-25T12:53:49.258Z,3.80
2023-05-25T12:54:51.245Z,3.63
2023-05-25T12:56:04.761Z,3.75
2023-05-25T12:57:06.792Z,3.83
2023-05-25T12:58:08.269Z,3.42
2023-05-25T12:59:15.868Z,3.42
2023-05-25T13:00:17.348Z,3.28
2023-05-25T13:01:18.794Z,3.63
2023-05-25T13:02:20.251Z,3.70
2023-05-25T13:03:21.660Z,3.53
2023-05-25T13:04:23.301Z,3.22
2023-05-25T13:05:28.516Z,3.65
2023-05-25T13:06:33.617Z,3.30
2023-05-25T13:07:35.025Z,3.20
2023-05-25T13:08:36.790Z,3.60
2023-05-25T13:09:38.272Z,3.35
2023-05-25T13:10:39.772Z,3.60
2023-05-25T13:11:41.361Z,3.38
2023-05-25T13:12:42.936Z,3.60
2023-05-25T13:13:44.900Z,3.88
2023-05-25T13:14:47.409Z,3.45
2023-05-25T13:15:48.854Z,3.45
2023-05-25T13:16:50.662Z,3.30
2023-05-25T13:17:52.893Z,3.45
2023-05-25T13:18:54.284Z,3.67
2023-05-25T13:19:55.660Z,3.28
2023-05-25T13:20:57.479Z,3.70
2023-05-25T13:21:59.214Z,3.75
2023-05-25T13:23:00.606Z,3.35
2023-05-25T13:24:01.983Z,3.42
2023-05-25T13:25:03.737Z,3.42
2023-05-25T13:26:05.186Z,3.72
2023-05-25T13:27:07.091Z,3.50
2023-05-25T13:28:08.470Z,3.30
2023-05-25T13:29:09.831Z,3.58
2023-05-25T13:30:11.972Z,3.85
2023-05-25T13:31:13.349Z,3.45
2023-05-25T13:32:14.836Z,3.28
2023-05-25T13:33:16.483Z,3.38
2023-05-25T13:34:17.964Z,3.35
2023-05-25T13:35:23.922Z,3.35
2023-05-25T13:36:25.482Z,3.58
2023-05-25T13:37:30.093Z,3.03
2023-05-25T13:38:31.518Z,3.28
2023-05-25T13:39:32.875Z,3.70
2023-05-25T13:40:34.511Z,3.10
2023-05-25T13:41:35.993Z,3.95
2023-05-25T13:42:37.352Z,3.70
2023-05-25T13:43:38.703Z,3.20
2023-05-25T13:44:40.036Z,4.15
2023-05-25T13:45:41.460Z,3.42
2023-05-25T13:46:42.883Z,3.53
2023-05-25T13:47:47.538Z,3.70
2023-05-25T13:48:49.147Z,3.45
2023-05-25T13:49:50.535Z,3.58
2023-05-25T13:50:51.993Z,3.80
2023-05-25T13:51:53.409Z,3.47
2023-05-25T13:52:54.766Z,3.38
2023-05-25T13:53:56.148Z,3.13
2023-05-25T13:54:57.606Z,3.28
2023-05-25T13:55:58.938Z,3.35
2023-05-25T13:57:00.680Z,3.92
2023-05-25T13:58:02.071Z,3.40
2023-05-25T13:59:03.512Z,3.50
2023-05-25T14:00:06.134Z,3.45
2023-05-25T14:01:09.384Z,3.55
2023-05-25T14:02:11.050Z,3.72
2023-05-25T14:03:12.675Z,3.30